sensor_id;sensor_type;location;lat;lon;timestamp;P1;durP1;ratioP1;P2;durP2;ratioP2
18316;SDS011;9284;52.298;21.164;2023-11-19T00:01:16;72.37;;;29.83;;
18316;SDS011;9284;52.298;21.164;2023-11-19T00:03:45;78.93;;;28.20;;
18316;SDS011;9284;52.298;21.164;2023-11-19T00:06:25;69.70;;;28.93;;
18316;SDS011;9284;52.298;21.164;2023-11-19T00:08:56;68.93;;;29.20;;
18316;SDS011;9284;52.298;21.164;2023-11-19T00:11:30;69.87;;;29.17;;
18316;SDS011;9284;52.298;21.164;2023-11-19T00:13:59;70.63;;;29.43;;
18316;SDS011;9284;52.298;21.164;2023-11-19T00:16:30;72.83;;;28.23;;
18316;SDS011;9284;52.298;21.164;2023-11-19T00:19:10;73.40;;;27.47;;
18316;SDS011;9284;52.298;21.164;2023-11-19T00:21:41;72.77;;;28.70;;
18316;SDS011;9284;52.298;21.164;2023-11-19T00:24:15;74.73;;;27.27;;
18316;SDS011;9284;52.298;21.164;2023-11-19T00:27:05;64.87;;;26.53;;
18316;SDS011;9284;52.298;21.164;2023-11-19T00:29:37;67.93;;;27.60;;
18316;SDS011;9284;52.298;21.164;2023-11-19T00:32:06;73.53;;;27.63;;
18316;SDS011;9284;52.298;21.164;2023-11-19T00:34:36;77.07;;;28.53;;
18316;SDS011;9284;52.298;21.164;2023-11-19T00:37:07;67.80;;;26.53;;
18316;SDS011;9284;52.298;21.164;2023-11-19T00:39:37;65.47;;;26.70;;
18316;SDS011;9284;52.298;21.164;2023-11-19T00:42:05;66.53;;;25.07;;
18316;SDS011;9284;52.298;21.164;2023-11-19T00:44:38;64.93;;;26.50;;
18316;SDS011;9284;52.298;21.164;2023-11-19T00:47:16;65.23;;;26.93;;
18316;SDS011;9284;52.298;21.164;2023-11-19T00:49:48;69.07;;;26.63;;
18316;SDS011;9284;52.298;21.164;2023-11-19T00:52:16;71.50;;;28.40;;
18316;SDS011;9284;52.298;21.164;2023-11-19T00:54:50;68.10;;;26.97;;
18316;SDS011;9284;52.298;21.164;2023-11-19T00:57:20;66.27;;;26.27;;
18316;SDS011;9284;52.298;21.164;2023-11-19T00:59:51;60.97;;;25.20;;
18316;SDS011;9284;52.298;21.164;2023-11-19T01:02:24;65.20;;;25.83;;
18316;SDS011;9284;52.298;21.164;2023-11-19T01:04:55;73.53;;;26.73;;
18316;SDS011;9284;52.298;21.164;2023-11-19T01:07:29;61.53;;;24.93;;
18316;SDS011;9284;52.298;21.164;2023-11-19T01:10:02;67.63;;;26.17;;
18316;SDS011;9284;52.298;21.164;2023-11-19T01:12:34;69.97;;;24.97;;
18316;SDS011;9284;52.298;21.164;2023-11-19T01:15:05;68.87;;;26.70;;
18316;SDS011;9284;52.298;21.164;2023-11-19T01:17:34;70.03;;;26.50;;
18316;SDS011;9284;52.298;21.164;2023-11-19T01:20:05;65.80;;;25.67;;
18316;SDS011;9284;52.298;21.164;2023-11-19T01:22:36;64.63;;;25.00;;
18316;SDS011;9284;52.298;21.164;2023-11-19T01:25:06;62.80;;;24.43;;
18316;SDS011;9284;52.298;21.164;2023-11-19T01:27:38;63.27;;;24.63;;
18316;SDS011;9284;52.298;21.164;2023-11-19T01:30:09;64.33;;;25.40;;
18316;SDS011;9284;52.298;21.164;2023-11-19T01:32:43;71.23;;;28.07;;
18316;SDS011;9284;52.298;21.164;2023-11-19T01:35:13;66.67;;;25.57;;
18316;SDS011;9284;52.298;21.164;2023-11-19T01:37:42;67.37;;;25.53;;
18316;SDS011;9284;52.298;21.164;2023-11-19T01:40:14;65.83;;;24.20;;
18316;SDS011;9284;52.298;21.164;2023-11-19T01:42:43;65.20;;;24.67;;
18316;SDS011;9284;52.298;21.164;2023-11-19T01:45:17;62.63;;;24.90;;
18316;SDS011;9284;52.298;21.164;2023-11-19T01:47:55;67.63;;;24.87;;
18316;SDS011;9284;52.298;21.164;2023-11-19T01:50:23;62.50;;;25.27;;
18316;SDS011;9284;52.298;21.164;2023-11-19T01:53:00;61.10;;;22.70;;
18316;SDS011;9284;52.298;21.164;2023-11-19T01:55:32;63.07;;;24.00;;
18316;SDS011;9284;52.298;21.164;2023-11-19T01:58:02;61.97;;;24.27;;
18316;SDS011;9284;52.298;21.164;2023-11-19T02:00:31;58.40;;;23.27;;
18316;SDS011;9284;52.298;21.164;2023-11-19T02:03:03;66.37;;;24.40;;
18316;SDS011;9284;52.298;21.164;2023-11-19T02:05:33;63.80;;;23.83;;
18316;SDS011;9284;52.298;21.164;2023-11-19T02:08:06;62.50;;;26.03;;
18316;SDS011;9284;52.298;21.164;2023-11-19T02:10:37;61.20;;;24.07;;
18316;SDS011;9284;52.298;21.164;2023-11-19T02:13:06;58.37;;;23.97;;
18316;SDS011;9284;52.298;21.164;2023-11-19T02:15:34;58.20;;;23.80;;
18316;SDS011;9284;52.298;21.164;2023-11-19T02:18:20;65.33;;;24.53;;
18316;SDS011;9284;52.298;21.164;2023-11-19T02:20:49;60.87;;;24.20;;
18316;SDS011;9284;52.298;21.164;2023-11-19T02:23:18;63.17;;;24.13;;
18316;SDS011;9284;52.298;21.164;2023-11-19T02:25:55;62.30;;;23.30;;
18316;SDS011;9284;52.298;21.164;2023-11-19T02:31:20;66.20;;;25.33;;
18316;SDS011;9284;52.298;21.164;2023-11-19T02:33:49;64.33;;;24.07;;
18316;SDS011;9284;52.298;21.164;2023-11-19T02:36:24;63.83;;;24.73;;
18316;SDS011;9284;52.298;21.164;2023-11-19T02:38:55;70.77;;;25.40;;
18316;SDS011;9284;52.298;21.164;2023-11-19T02:41:29;68.07;;;24.07;;
18316;SDS011;9284;52.298;21.164;2023-11-19T02:44:01;69.07;;;26.13;;
18316;SDS011;9284;52.298;21.164;2023-11-19T02:46:32;65.13;;;25.13;;
18316;SDS011;9284;52.298;21.164;2023-11-19T02:49:00;72.37;;;25.60;;
18316;SDS011;9284;52.298;21.164;2023-11-19T02:51:31;71.47;;;25.70;;
18316;SDS011;9284;52.298;21.164;2023-11-19T02:54:04;71.60;;;25.03;;
18316;SDS011;9284;52.298;21.164;2023-11-19T02:56:34;75.83;;;27.00;;
18316;SDS011;9284;52.298;21.164;2023-11-19T02:59:08;70.30;;;26.03;;
18316;SDS011;9284;52.298;21.164;2023-11-19T03:01:45;76.77;;;26.40;;
18316;SDS011;9284;52.298;21.164;2023-11-19T03:04:19;74.23;;;26.70;;
18316;SDS011;9284;52.298;21.164;2023-11-19T03:06:49;67.60;;;25.37;;
18316;SDS011;9284;52.298;21.164;2023-11-19T03:09:24;76.80;;;27.40;;
18316;SDS011;9284;52.298;21.164;2023-11-19T03:11:53;74.47;;;26.20;;
18316;SDS011;9284;52.298;21.164;2023-11-19T03:14:23;82.80;;;28.00;;
18316;SDS011;9284;52.298;21.164;2023-11-19T03:16:51;77.93;;;26.37;;
18316;SDS011;9284;52.298;21.164;2023-11-19T03:19:22;81.23;;;28.03;;
18316;SDS011;9284;52.298;21.164;2023-11-19T03:21:53;81.00;;;26.80;;
18316;SDS011;9284;52.298;21.164;2023-11-19T03:24:24;84.50;;;29.47;;
18316;SDS011;9284;52.298;21.164;2023-11-19T03:26:55;79.47;;;27.60;;
18316;SDS011;9284;52.298;21.164;2023-11-19T03:29:32;80.07;;;25.70;;
18316;SDS011;9284;52.298;21.164;2023-11-19T03:32:04;75.97;;;25.60;;
18316;SDS011;9284;52.298;21.164;2023-11-19T03:34:34;78.33;;;27.50;;
18316;SDS011;9284;52.298;21.164;2023-11-19T03:37:05;82.90;;;26.77;;
18316;SDS011;9284;52.298;21.164;2023-11-19T03:39:35;83.93;;;28.80;;
18316;SDS011;9284;52.298;21.164;2023-11-19T03:42:04;79.17;;;27.33;;
18316;SDS011;9284;52.298;21.164;2023-11-19T03:44:38;86.47;;;27.20;;
18316;SDS011;9284;52.298;21.164;2023-11-19T03:47:25;84.17;;;27.33;;
18316;SDS011;9284;52.298;21.164;2023-11-19T03:49:54;85.00;;;28.40;;
18316;SDS011;9284;52.298;21.164;2023-11-19T03:52:26;77.97;;;26.83;;
18316;SDS011;9284;52.298;21.164;2023-11-19T03:54:54;83.73;;;27.47;;
18316;SDS011;9284;52.298;21.164;2023-11-19T03:57:23;80.93;;;26.67;;
18316;SDS011;9284;52.298;21.164;2023-11-19T03:59:53;84.50;;;25.73;;
18316;SDS011;9284;52.298;21.164;2023-11-19T04:02:22;82.10;;;26.10;;
18316;SDS011;9284;52.298;21.164;2023-11-19T04:04:50;75.27;;;26.10;;
18316;SDS011;9284;52.298;21.164;2023-11-19T04:07:18;84.37;;;27.10;;
18316;SDS011;9284;52.298;21.164;2023-11-19T04:09:47;77.27;;;26.53;;
18316;SDS011;9284;52.298;21.164;2023-11-19T04:12:17;83.80;;;27.10;;
18316;SDS011;9284;52.298;21.164;2023-11-19T04:14:46;86.97;;;26.97;;
18316;SDS011;9284;52.298;21.164;2023-11-19T04:17:31;77.63;;;25.33;;
18316;SDS011;9284;52.298;21.164;2023-11-19T04:20:08;77.83;;;27.93;;
18316;SDS011;9284;52.298;21.164;2023-11-19T04:22:43;81.77;;;25.63;;
18316;SDS011;9284;52.298;21.164;2023-11-19T04:25:13;85.47;;;25.63;;
18316;SDS011;9284;52.298;21.164;2023-11-19T04:27:43;76.27;;;25.03;;
18316;SDS011;9284;52.298;21.164;2023-11-19T04:30:13;90.33;;;26.47;;
18316;SDS011;9284;52.298;21.164;2023-11-19T04:32:46;84.17;;;26.43;;
18316;SDS011;9284;52.298;21.164;2023-11-19T04:35:17;92.40;;;26.93;;
18316;SDS011;9284;52.298;21.164;2023-11-19T04:37:46;81.80;;;25.33;;
18316;SDS011;9284;52.298;21.164;2023-11-19T04:40:15;85.33;;;25.27;;
18316;SDS011;9284;52.298;21.164;2023-11-19T04:42:45;77.83;;;26.97;;
18316;SDS011;9284;52.298;21.164;2023-11-19T04:45:13;80.97;;;25.27;;
18316;SDS011;9284;52.298;21.164;2023-11-19T04:47:42;87.33;;;25.23;;
18316;SDS011;9284;52.298;21.164;2023-11-19T04:50:15;86.83;;;26.40;;
18316;SDS011;9284;52.298;21.164;2023-11-19T04:52:44;81.63;;;25.43;;
18316;SDS011;9284;52.298;21.164;2023-11-19T04:55:15;89.63;;;28.20;;
18316;SDS011;9284;52.298;21.164;2023-11-19T04:57:46;84.57;;;26.03;;
18316;SDS011;9284;52.298;21.164;2023-11-19T05:00:16;80.93;;;25.10;;
18316;SDS011;9284;52.298;21.164;2023-11-19T05:02:49;84.43;;;25.53;;
18316;SDS011;9284;52.298;21.164;2023-11-19T05:05:19;86.87;;;25.37;;
18316;SDS011;9284;52.298;21.164;2023-11-19T05:07:49;90.87;;;28.47;;
18316;SDS011;9284;52.298;21.164;2023-11-19T05:10:18;83.87;;;26.10;;
18316;SDS011;9284;52.298;21.164;2023-11-19T05:12:46;91.23;;;27.27;;
18316;SDS011;9284;52.298;21.164;2023-11-19T05:15:15;86.43;;;25.73;;
18316;SDS011;9284;52.298;21.164;2023-11-19T05:17:51;86.63;;;25.97;;
18316;SDS011;9284;52.298;21.164;2023-11-19T05:20:20;86.87;;;26.27;;
18316;SDS011;9284;52.298;21.164;2023-11-19T05:22:52;78.73;;;25.57;;
18316;SDS011;9284;52.298;21.164;2023-11-19T05:25:21;87.30;;;26.67;;
18316;SDS011;9284;52.298;21.164;2023-11-19T05:27:49;85.07;;;24.53;;
18316;SDS011;9284;52.298;21.164;2023-11-19T05:30:23;89.60;;;25.40;;
18316;SDS011;9284;52.298;21.164;2023-11-19T05:32:51;90.97;;;25.07;;
18316;SDS011;9284;52.298;21.164;2023-11-19T05:42:50;86.17;;;26.87;;
18316;SDS011;9284;52.298;21.164;2023-11-19T06:03:10;84.13;;;24.60;;
18316;SDS011;9284;52.298;21.164;2023-11-19T06:05:39;98.97;;;26.37;;
18316;SDS011;9284;52.298;21.164;2023-11-19T06:08:07;85.43;;;25.13;;
18316;SDS011;9284;52.298;21.164;2023-11-19T06:15:12;77.00;;;24.07;;
18316;SDS011;9284;52.298;21.164;2023-11-19T06:22:18;78.50;;;24.00;;
18316;SDS011;9284;52.298;21.164;2023-11-19T06:28:02;79.73;;;24.93;;
18316;SDS011;9284;52.298;21.164;2023-11-19T06:38:36;74.27;;;21.33;;
18316;SDS011;9284;52.298;21.164;2023-11-19T06:41:10;68.13;;;22.83;;
18316;SDS011;9284;52.298;21.164;2023-11-19T06:43:38;73.40;;;23.00;;
18316;SDS011;9284;52.298;21.164;2023-11-19T06:47:06;63.67;;;21.33;;
18316;SDS011;9284;52.298;21.164;2023-11-19T06:49:36;70.93;;;23.43;;
18316;SDS011;9284;52.298;21.164;2023-11-19T06:52:05;72.93;;;23.40;;
18316;SDS011;9284;52.298;21.164;2023-11-19T06:54:35;67.00;;;21.50;;
18316;SDS011;9284;52.298;21.164;2023-11-19T06:57:05;70.00;;;22.23;;
18316;SDS011;9284;52.298;21.164;2023-11-19T07:45:49;47.60;;;17.17;;
18316;SDS011;9284;52.298;21.164;2023-11-19T07:48:21;43.97;;;17.97;;
18316;SDS011;9284;52.298;21.164;2023-11-19T07:50:55;47.87;;;17.87;;
18316;SDS011;9284;52.298;21.164;2023-11-19T07:53:24;42.27;;;17.13;;
18316;SDS011;9284;52.298;21.164;2023-11-19T07:55:57;42.43;;;17.67;;
18316;SDS011;9284;52.298;21.164;2023-11-19T07:58:27;42.23;;;16.80;;
18316;SDS011;9284;52.298;21.164;2023-11-19T08:00:57;39.33;;;16.13;;
18316;SDS011;9284;52.298;21.164;2023-11-19T08:03:26;39.30;;;16.53;;
18316;SDS011;9284;52.298;21.164;2023-11-19T08:10:53;35.93;;;14.57;;
18316;SDS011;9284;52.298;21.164;2023-11-19T08:13:23;37.57;;;14.10;;
18316;SDS011;9284;52.298;21.164;2023-11-19T08:23:06;32.40;;;14.17;;
18316;SDS011;9284;52.298;21.164;2023-11-19T08:25:35;36.60;;;15.13;;
18316;SDS011;9284;52.298;21.164;2023-11-19T08:28:05;35.03;;;14.80;;
18316;SDS011;9284;52.298;21.164;2023-11-19T08:30:37;32.07;;;13.87;;
18316;SDS011;9284;52.298;21.164;2023-11-19T08:33:07;31.10;;;14.07;;
18316;SDS011;9284;52.298;21.164;2023-11-19T08:35:44;34.33;;;13.93;;
18316;SDS011;9284;52.298;21.164;2023-11-19T08:38:15;29.10;;;14.27;;
18316;SDS011;9284;52.298;21.164;2023-11-19T08:41:22;31.53;;;14.57;;
18316;SDS011;9284;52.298;21.164;2023-11-19T08:43:52;30.17;;;14.43;;
18316;SDS011;9284;52.298;21.164;2023-11-19T08:46:22;32.33;;;13.67;;
18316;SDS011;9284;52.298;21.164;2023-11-19T08:48:52;29.93;;;13.27;;
18316;SDS011;9284;52.298;21.164;2023-11-19T08:51:24;37.67;;;14.53;;
18316;SDS011;9284;52.298;21.164;2023-11-19T08:54:00;31.93;;;13.70;;
18316;SDS011;9284;52.298;21.164;2023-11-19T08:56:31;29.83;;;13.77;;
18316;SDS011;9284;52.298;21.164;2023-11-19T08:59:02;30.23;;;13.73;;
18316;SDS011;9284;52.298;21.164;2023-11-19T09:01:34;26.70;;;13.37;;
18316;SDS011;9284;52.298;21.164;2023-11-19T09:04:09;30.10;;;13.47;;
18316;SDS011;9284;52.298;21.164;2023-11-19T09:06:49;30.67;;;13.70;;
18316;SDS011;9284;52.298;21.164;2023-11-19T09:09:20;26.57;;;13.77;;
18316;SDS011;9284;52.298;21.164;2023-11-19T09:11:51;31.47;;;14.90;;
18316;SDS011;9284;52.298;21.164;2023-11-19T09:14:21;26.47;;;13.50;;
18316;SDS011;9284;52.298;21.164;2023-11-19T09:16:59;26.77;;;13.10;;
18316;SDS011;9284;52.298;21.164;2023-11-19T09:19:29;25.87;;;12.77;;
18316;SDS011;9284;52.298;21.164;2023-11-19T09:22:05;28.47;;;13.20;;
18316;SDS011;9284;52.298;21.164;2023-11-19T09:24:38;27.87;;;13.23;;
18316;SDS011;9284;52.298;21.164;2023-11-19T09:27:43;24.33;;;12.33;;
18316;SDS011;9284;52.298;21.164;2023-11-19T09:30:12;26.37;;;12.70;;
18316;SDS011;9284;52.298;21.164;2023-11-19T09:32:45;26.23;;;13.13;;
18316;SDS011;9284;52.298;21.164;2023-11-19T09:35:17;26.10;;;12.53;;
18316;SDS011;9284;52.298;21.164;2023-11-19T09:37:47;22.27;;;11.77;;
18316;SDS011;9284;52.298;21.164;2023-11-19T09:40:19;30.33;;;12.23;;
18316;SDS011;9284;52.298;21.164;2023-11-19T09:42:50;26.97;;;12.70;;
18316;SDS011;9284;52.298;21.164;2023-11-19T09:45:21;25.63;;;12.03;;
18316;SDS011;9284;52.298;21.164;2023-11-19T09:47:54;24.50;;;11.83;;
18316;SDS011;9284;52.298;21.164;2023-11-19T09:50:29;26.63;;;12.63;;
18316;SDS011;9284;52.298;21.164;2023-11-19T09:53:04;26.17;;;11.60;;
18316;SDS011;9284;52.298;21.164;2023-11-19T09:55:34;26.23;;;12.27;;
18316;SDS011;9284;52.298;21.164;2023-11-19T09:58:02;25.43;;;11.57;;
18316;SDS011;9284;52.298;21.164;2023-11-19T10:00:31;25.03;;;11.93;;
18316;SDS011;9284;52.298;21.164;2023-11-19T10:03:00;24.30;;;11.37;;
18316;SDS011;9284;52.298;21.164;2023-11-19T10:05:32;25.27;;;11.63;;
18316;SDS011;9284;52.298;21.164;2023-11-19T10:08:01;22.10;;;11.10;;
18316;SDS011;9284;52.298;21.164;2023-11-19T10:10:29;25.77;;;11.63;;
18316;SDS011;9284;52.298;21.164;2023-11-19T10:12:59;24.37;;;11.03;;
18316;SDS011;9284;52.298;21.164;2023-11-19T10:15:28;21.63;;;10.80;;
18316;SDS011;9284;52.298;21.164;2023-11-19T10:18:04;22.03;;;10.73;;
18316;SDS011;9284;52.298;21.164;2023-11-19T10:20:36;21.80;;;10.43;;
18316;SDS011;9284;52.298;21.164;2023-11-19T10:23:08;21.97;;;10.33;;
18316;SDS011;9284;52.298;21.164;2023-11-19T10:25:38;23.30;;;10.67;;
18316;SDS011;9284;52.298;21.164;2023-11-19T10:28:09;19.50;;;9.93;;
18316;SDS011;9284;52.298;21.164;2023-11-19T10:30:38;21.33;;;10.43;;
18316;SDS011;9284;52.298;21.164;2023-11-19T10:33:06;23.70;;;10.67;;
18316;SDS011;9284;52.298;21.164;2023-11-19T10:35:36;21.63;;;11.33;;
18316;SDS011;9284;52.298;21.164;2023-11-19T10:38:23;21.23;;;10.30;;
18316;SDS011;9284;52.298;21.164;2023-11-19T10:40:55;22.00;;;11.10;;
18316;SDS011;9284;52.298;21.164;2023-11-19T10:43:25;22.97;;;10.80;;
18316;SDS011;9284;52.298;21.164;2023-11-19T10:46:08;23.97;;;11.07;;
18316;SDS011;9284;52.298;21.164;2023-11-19T10:48:40;22.93;;;10.43;;
18316;SDS011;9284;52.298;21.164;2023-11-19T10:51:09;22.23;;;11.30;;
18316;SDS011;9284;52.298;21.164;2023-11-19T10:53:39;22.23;;;10.87;;
18316;SDS011;9284;52.298;21.164;2023-11-19T10:56:14;24.20;;;11.63;;
18316;SDS011;9284;52.298;21.164;2023-11-19T10:58:47;21.03;;;10.10;;
18316;SDS011;9284;52.298;21.164;2023-11-19T11:01:21;24.77;;;10.10;;
18316;SDS011;9284;52.298;21.164;2023-11-19T11:03:55;21.33;;;10.43;;
18316;SDS011;9284;52.298;21.164;2023-11-19T11:06:33;20.90;;;10.47;;
18316;SDS011;9284;52.298;21.164;2023-11-19T11:09:05;22.17;;;11.20;;
18316;SDS011;9284;52.298;21.164;2023-11-19T11:11:38;19.00;;;9.63;;
18316;SDS011;9284;52.298;21.164;2023-11-19T11:14:14;22.03;;;10.83;;
18316;SDS011;9284;52.298;21.164;2023-11-19T11:16:54;22.67;;;10.67;;
18316;SDS011;9284;52.298;21.164;2023-11-19T11:19:26;26.47;;;11.30;;
18316;SDS011;9284;52.298;21.164;2023-11-19T11:21:54;23.83;;;10.80;;
18316;SDS011;9284;52.298;21.164;2023-11-19T11:24:30;24.30;;;11.60;;
18316;SDS011;9284;52.298;21.164;2023-11-19T11:27:36;25.67;;;10.33;;
18316;SDS011;9284;52.298;21.164;2023-11-19T11:30:23;22.10;;;11.13;;
18316;SDS011;9284;52.298;21.164;2023-11-19T11:33:10;21.07;;;10.53;;
18316;SDS011;9284;52.298;21.164;2023-11-19T11:35:55;20.07;;;10.50;;
18316;SDS011;9284;52.298;21.164;2023-11-19T11:38:39;26.30;;;11.73;;
18316;SDS011;9284;52.298;21.164;2023-11-19T11:41:16;22.77;;;10.93;;
18316;SDS011;9284;52.298;21.164;2023-11-19T11:43:57;27.07;;;11.23;;
18316;SDS011;9284;52.298;21.164;2023-11-19T11:49:28;24.27;;;12.13;;
18316;SDS011;9284;52.298;21.164;2023-11-19T11:51:58;21.73;;;10.93;;
18316;SDS011;9284;52.298;21.164;2023-11-19T11:54:28;25.43;;;12.10;;
18316;SDS011;9284;52.298;21.164;2023-11-19T11:57:10;23.37;;;11.13;;
18316;SDS011;9284;52.298;21.164;2023-11-19T11:59:47;26.87;;;12.40;;
18316;SDS011;9284;52.298;21.164;2023-11-19T12:02:19;27.13;;;11.67;;
18316;SDS011;9284;52.298;21.164;2023-11-19T12:04:52;22.90;;;10.97;;
18316;SDS011;9284;52.298;21.164;2023-11-19T12:07:35;26.17;;;11.67;;
18316;SDS011;9284;52.298;21.164;2023-11-19T12:10:12;25.23;;;11.87;;
18316;SDS011;9284;52.298;21.164;2023-11-19T12:12:53;25.53;;;11.73;;
18316;SDS011;9284;52.298;21.164;2023-11-19T12:15:22;25.93;;;12.80;;
18316;SDS011;9284;52.298;21.164;2023-11-19T12:17:54;26.37;;;11.77;;
18316;SDS011;9284;52.298;21.164;2023-11-19T12:20:25;25.20;;;12.40;;
18316;SDS011;9284;52.298;21.164;2023-11-19T12:23:04;25.77;;;12.00;;
18316;SDS011;9284;52.298;21.164;2023-11-19T12:25:36;27.93;;;12.67;;
18316;SDS011;9284;52.298;21.164;2023-11-19T12:28:12;25.27;;;11.27;;
18316;SDS011;9284;52.298;21.164;2023-11-19T12:30:43;27.47;;;12.30;;
18316;SDS011;9284;52.298;21.164;2023-11-19T12:33:15;25.97;;;12.20;;
18316;SDS011;9284;52.298;21.164;2023-11-19T12:35:44;25.70;;;12.63;;
18316;SDS011;9284;52.298;21.164;2023-11-19T12:38:26;28.77;;;12.40;;
18316;SDS011;9284;52.298;21.164;2023-11-19T12:41:04;27.73;;;11.97;;
18316;SDS011;9284;52.298;21.164;2023-11-19T12:43:33;27.20;;;12.43;;
18316;SDS011;9284;52.298;21.164;2023-11-19T12:46:16;26.83;;;12.30;;
18316;SDS011;9284;52.298;21.164;2023-11-19T12:48:48;29.10;;;12.90;;
18316;SDS011;9284;52.298;21.164;2023-11-19T12:51:17;26.07;;;12.97;;
18316;SDS011;9284;52.298;21.164;2023-11-19T12:53:47;26.63;;;12.30;;
18316;SDS011;9284;52.298;21.164;2023-11-19T12:56:18;25.37;;;12.03;;
18316;SDS011;9284;52.298;21.164;2023-11-19T12:58:47;28.63;;;13.13;;
18316;SDS011;9284;52.298;21.164;2023-11-19T13:01:16;25.77;;;11.87;;
18316;SDS011;9284;52.298;21.164;2023-11-19T13:03:48;26.73;;;13.10;;
18316;SDS011;9284;52.298;21.164;2023-11-19T13:06:24;24.93;;;11.80;;
18316;SDS011;9284;52.298;21.164;2023-11-19T13:08:53;24.77;;;12.80;;
18316;SDS011;9284;52.298;21.164;2023-11-19T13:11:31;26.83;;;12.73;;
18316;SDS011;9284;52.298;21.164;2023-11-19T13:14:02;29.93;;;13.47;;
18316;SDS011;9284;52.298;21.164;2023-11-19T13:16:32;27.50;;;12.40;;
18316;SDS011;9284;52.298;21.164;2023-11-19T13:19:03;28.03;;;13.13;;
18316;SDS011;9284;52.298;21.164;2023-11-19T13:21:32;25.67;;;12.70;;
18316;SDS011;9284;52.298;21.164;2023-11-19T13:24:01;28.07;;;12.83;;
18316;SDS011;9284;52.298;21.164;2023-11-19T13:26:29;29.27;;;13.73;;
18316;SDS011;9284;52.298;21.164;2023-11-19T13:28:58;28.17;;;12.90;;
18316;SDS011;9284;52.298;21.164;2023-11-19T13:31:26;27.67;;;13.20;;
18316;SDS011;9284;52.298;21.164;2023-11-19T13:33:55;29.20;;;12.23;;
18316;SDS011;9284;52.298;21.164;2023-11-19T13:36:26;28.27;;;13.57;;
18316;SDS011;9284;52.298;21.164;2023-11-19T13:38:54;26.03;;;13.00;;
18316;SDS011;9284;52.298;21.164;2023-11-19T13:41:26;28.37;;;12.87;;
18316;SDS011;9284;52.298;21.164;2023-11-19T13:43:55;26.50;;;12.50;;
18316;SDS011;9284;52.298;21.164;2023-11-19T13:46:23;28.13;;;13.73;;
18316;SDS011;9284;52.298;21.164;2023-11-19T13:48:51;26.93;;;13.90;;
18316;SDS011;9284;52.298;21.164;2023-11-19T13:51:19;32.00;;;13.47;;
18316;SDS011;9284;52.298;21.164;2023-11-19T13:53:49;29.77;;;14.47;;
18316;SDS011;9284;52.298;21.164;2023-11-19T13:56:18;31.67;;;14.90;;
18316;SDS011;9284;52.298;21.164;2023-11-19T13:58:46;35.80;;;14.23;;
18316;SDS011;9284;52.298;21.164;2023-11-19T14:01:14;36.47;;;15.23;;
18316;SDS011;9284;52.298;21.164;2023-11-19T14:03:42;34.30;;;15.00;;
18316;SDS011;9284;52.298;21.164;2023-11-19T14:06:11;36.20;;;15.33;;
18316;SDS011;9284;52.298;21.164;2023-11-19T14:08:39;40.37;;;16.10;;
18316;SDS011;9284;52.298;21.164;2023-11-19T14:11:09;36.23;;;15.70;;
18316;SDS011;9284;52.298;21.164;2023-11-19T14:13:37;36.97;;;15.93;;
18316;SDS011;9284;52.298;21.164;2023-11-19T14:16:06;34.63;;;16.43;;
18316;SDS011;9284;52.298;21.164;2023-11-19T14:18:35;35.60;;;16.30;;
18316;SDS011;9284;52.298;21.164;2023-11-19T14:21:05;38.40;;;16.47;;
18316;SDS011;9284;52.298;21.164;2023-11-19T14:23:33;43.63;;;16.97;;
18316;SDS011;9284;52.298;21.164;2023-11-19T14:26:02;40.67;;;16.53;;
18316;SDS011;9284;52.298;21.164;2023-11-19T14:28:32;36.93;;;17.07;;
18316;SDS011;9284;52.298;21.164;2023-11-19T14:31:01;42.53;;;18.10;;
18316;SDS011;9284;52.298;21.164;2023-11-19T14:33:29;36.63;;;16.07;;
18316;SDS011;9284;52.298;21.164;2023-11-19T14:35:58;40.60;;;18.93;;
18316;SDS011;9284;52.298;21.164;2023-11-19T14:38:27;42.33;;;17.93;;
18316;SDS011;9284;52.298;21.164;2023-11-19T14:40:55;43.23;;;18.20;;
18316;SDS011;9284;52.298;21.164;2023-11-19T14:43:25;44.20;;;17.57;;
18316;SDS011;9284;52.298;21.164;2023-11-19T14:45:55;36.97;;;16.40;;
18316;SDS011;9284;52.298;21.164;2023-11-19T14:48:23;38.30;;;17.07;;
18316;SDS011;9284;52.298;21.164;2023-11-19T14:50:52;39.87;;;16.83;;
18316;SDS011;9284;52.298;21.164;2023-11-19T14:53:20;40.70;;;18.40;;
18316;SDS011;9284;52.298;21.164;2023-11-19T14:55:49;39.30;;;17.83;;
18316;SDS011;9284;52.298;21.164;2023-11-19T14:58:17;42.00;;;18.93;;
18316;SDS011;9284;52.298;21.164;2023-11-19T15:00:45;41.33;;;18.23;;
18316;SDS011;9284;52.298;21.164;2023-11-19T15:03:17;44.53;;;18.97;;
18316;SDS011;9284;52.298;21.164;2023-11-19T15:05:47;43.43;;;19.00;;
18316;SDS011;9284;52.298;21.164;2023-11-19T15:08:17;41.43;;;18.03;;
18316;SDS011;9284;52.298;21.164;2023-11-19T15:10:46;44.00;;;19.67;;
18316;SDS011;9284;52.298;21.164;2023-11-19T15:13:14;41.30;;;17.07;;
18316;SDS011;9284;52.298;21.164;2023-11-19T15:15:42;46.30;;;18.83;;
18316;SDS011;9284;52.298;21.164;2023-11-19T15:18:11;47.93;;;18.87;;
18316;SDS011;9284;52.298;21.164;2023-11-19T15:20:42;42.57;;;18.23;;
18316;SDS011;9284;52.298;21.164;2023-11-19T15:23:13;42.20;;;18.33;;
18316;SDS011;9284;52.298;21.164;2023-11-19T15:25:42;45.93;;;19.33;;
18316;SDS011;9284;52.298;21.164;2023-11-19T15:28:10;47.53;;;19.73;;
18316;SDS011;9284;52.298;21.164;2023-11-19T15:30:39;49.97;;;20.90;;
18316;SDS011;9284;52.298;21.164;2023-11-19T15:33:08;47.13;;;20.53;;
18316;SDS011;9284;52.298;21.164;2023-11-19T15:35:38;49.40;;;20.13;;
18316;SDS011;9284;52.298;21.164;2023-11-19T15:38:08;48.73;;;20.07;;
18316;SDS011;9284;52.298;21.164;2023-11-19T15:40:37;47.27;;;19.93;;
18316;SDS011;9284;52.298;21.164;2023-11-19T15:43:05;47.10;;;19.73;;
18316;SDS011;9284;52.298;21.164;2023-11-19T15:45:34;46.27;;;20.13;;
18316;SDS011;9284;52.298;21.164;2023-11-19T15:48:04;39.90;;;18.23;;
18316;SDS011;9284;52.298;21.164;2023-11-19T15:50:33;40.30;;;17.93;;
18316;SDS011;9284;52.298;21.164;2023-11-19T15:53:01;42.43;;;17.00;;
18316;SDS011;9284;52.298;21.164;2023-11-19T15:55:31;46.37;;;18.60;;
18316;SDS011;9284;52.298;21.164;2023-11-19T15:57:59;39.80;;;16.87;;
18316;SDS011;9284;52.298;21.164;2023-11-19T16:00:28;42.87;;;18.53;;
18316;SDS011;9284;52.298;21.164;2023-11-19T16:02:56;39.30;;;17.77;;
18316;SDS011;9284;52.298;21.164;2023-11-19T16:05:24;41.80;;;18.40;;
18316;SDS011;9284;52.298;21.164;2023-11-19T16:07:53;39.90;;;16.57;;
18316;SDS011;9284;52.298;21.164;2023-11-19T16:10:21;42.60;;;17.67;;
18316;SDS011;9284;52.298;21.164;2023-11-19T16:12:53;42.97;;;17.53;;
18316;SDS011;9284;52.298;21.164;2023-11-19T16:15:21;38.23;;;17.77;;
18316;SDS011;9284;52.298;21.164;2023-11-19T16:17:52;42.23;;;17.67;;
18316;SDS011;9284;52.298;21.164;2023-11-19T16:20:24;41.37;;;18.47;;
18316;SDS011;9284;52.298;21.164;2023-11-19T16:22:52;41.40;;;16.77;;
18316;SDS011;9284;52.298;21.164;2023-11-19T16:25:21;37.80;;;17.07;;
18316;SDS011;9284;52.298;21.164;2023-11-19T16:27:49;38.27;;;15.60;;
18316;SDS011;9284;52.298;21.164;2023-11-19T16:30:19;38.33;;;17.00;;
18316;SDS011;9284;52.298;21.164;2023-11-19T16:32:51;41.30;;;17.17;;
18316;SDS011;9284;52.298;21.164;2023-11-19T16:35:21;35.13;;;16.93;;
18316;SDS011;9284;52.298;21.164;2023-11-19T16:37:49;42.07;;;17.00;;